Time;durP1;ratioP1;P1;durP2;ratioP2;P2;SDS_P1;SDS_P2;PMS_P1;PMS_P2;Temp;Humidity;BMP_temperature;BMP_pressure;BME280_temperature;BME280_humidity;BME280_pressure;Samples;Min_cycle;Max_cycle;Signal;HPM_P1;HPM_P2
2021/06/24 00:01:51;;;;;;;20.58;13.00;;;;;;;14.16;83.15;101305.78;5065179;27;20051;-48
2021/06/24 00:04:17;;;;;;;18.70;13.18;;;;;;;14.23;82.83;101307.47;5074605;28;20041;-50
2021/06/24 00:06:43;;;;;;;16.52;12.70;;;;;;;14.20;82.35;101310.13;5094205;28;20035;-49
2021/06/24 00:09:10;;;;;;;18.42;13.02;;;;;;;14.38;81.38;101311.72;5093883;27;20236;-48
2021/06/24 00:11:36;;;;;;;16.95;13.73;;;;;;;14.18;83.39;101301.38;5075691;28;20074;-48
2021/06/24 00:14:02;;;;;;;18.35;12.60;;;;;;;14.19;82.29;101305.75;5094484;27;20531;-50
2021/06/24 00:16:28;;;;;;;17.70;13.68;;;;;;;14.25;82.53;101311.84;5094147;27;20461;-48
2021/06/24 00:18:54;;;;;;;24.45;13.82;;;;;;;14.21;82.47;101301.38;5092636;28;20040;-48
2021/06/24 00:21:20;;;;;;;18.73;14.18;;;;;;;14.18;83.88;101304.91;5093622;27;20071;-51
2021/06/24 00:23:46;;;;;;;19.25;13.80;;;;;;;14.15;84.30;101312.81;5096038;28;20039;-50
2021/06/24 00:26:11;;;;;;;17.15;12.80;;;;;;;14.08;84.31;101311.09;5094441;27;20042;-49
2021/06/24 00:28:37;;;;;;;16.10;12.02;;;;;;;14.14;83.73;101311.06;5075059;28;20494;-48
2021/06/24 00:31:03;;;;;;;20.83;12.60;;;;;;;14.20;83.23;101315.41;5094967;28;20062;-48
2021/06/24 00:33:40;;;;;;;26.52;14.88;;;;;;;14.32;83.58;101304.75;5093993;27;20035;-48
2021/06/24 00:36:07;;;;;;;17.02;12.90;;;;;;;14.27;83.59;101317.06;5093769;27;20531;-49
2021/06/24 00:38:33;;;;;;;15.00;11.48;;;;;;;14.36;82.62;101311.72;5094826;28;20522;-50
2021/06/24 00:40:59;;;;;;;14.65;11.63;;;;;;;14.37;81.87;101309.97;5074548;28;20032;-48
2021/06/24 00:43:26;;;;;;;14.48;11.45;;;;;;;14.37;81.07;101307.34;5093758;27;20491;-48
2021/06/24 00:45:54;;;;;;;14.13;10.88;;;;;;;14.51;81.57;101302.81;5096677;27;20130;-52
2021/06/24 00:48:20;;;;;;;15.10;11.02;;;;;;;14.55;80.88;101298.38;5091500;27;20031;-48
2021/06/24 00:50:48;;;;;;;14.93;9.90;;;;;;;14.47;81.23;101290.59;5077677;28;20032;-50
2021/06/24 00:53:14;;;;;;;13.95;10.55;;;;;;;14.50;80.63;101301.06;5094199;27;20471;-48
2021/06/24 00:55:45;;;;;;;13.88;9.95;;;;;;;14.55;81.78;101296.63;5077008;28;20058;-48
2021/06/24 00:58:15;;;;;;;12.07;9.98;;;;;;;14.52;80.39;101291.38;5077178;28;20032;-48
2021/06/24 01:00:44;;;;;;;15.00;10.73;;;;;;;14.54;80.50;101297.50;5075361;28;20040;-48
2021/06/24 01:03:12;;;;;;;12.43;10.35;;;;;;;14.50;80.59;101298.44;5076059;28;20074;-48
2021/06/24 01:05:40;;;;;;;11.43;9.35;;;;;;;14.54;80.11;101289.63;5093588;27;20434;-55
2021/06/24 01:08:07;;;;;;;12.70;10.63;;;;;;;14.58;80.65;101286.06;5093845;28;20035;-48
2021/06/24 01:10:34;;;;;;;16.40;10.80;;;;;;;14.51;81.39;101294.03;5074107;28;20031;-50
2021/06/24 01:13:02;;;;;;;13.25;10.75;;;;;;;14.51;81.08;101286.13;5094615;27;21105;-48
2021/06/24 01:15:28;;;;;;;16.95;10.75;;;;;;;14.56;80.45;101290.47;5108155;27;20540;-48
2021/06/24 01:17:58;;;;;;;12.88;10.80;;;;;;;14.52;80.62;101286.13;5075777;28;20035;-48
2021/06/24 01:20:31;;;;;;;12.98;10.20;;;;;;;14.55;80.16;101291.38;5093112;28;20050;-48
2021/06/24 01:22:58;;;;;;;13.82;9.75;;;;;;;14.54;80.67;101294.00;5093377;28;20044;-48
2021/06/24 01:25:24;;;;;;;13.15;9.70;;;;;;;14.47;80.52;101293.22;5061329;28;20105;-49
2021/06/24 01:27:59;;;;;;;12.50;10.25;;;;;;;14.53;80.39;101293.13;5074951;28;20131;-49
2021/06/24 01:30:25;;;;;;;15.07;10.93;;;;;;;14.58;80.04;101286.06;5079157;28;20044;-48
2021/06/24 01:32:55;;;;;;;15.25;11.18;;;;;;;14.58;80.46;101282.53;5084479;28;20043;-52
2021/06/24 01:35:26;;;;;;;13.60;10.15;;;;;;;14.61;80.55;101275.50;5077386;28;20510;-49
2021/06/24 01:37:57;;;;;;;15.13;10.80;;;;;;;14.66;80.75;101275.47;5095973;27;20035;-49
2021/06/24 01:40:23;;;;;;;13.38;10.73;;;;;;;14.81;79.76;101266.53;5100448;27;20079;-48
2021/06/24 01:42:49;;;;;;;13.48;10.15;;;;;;;14.75;78.50;101264.84;5074516;28;21408;-48
2021/06/24 01:45:15;;;;;;;12.38;10.25;;;;;;;14.79;79.49;101268.31;5069254;27;20040;-50
2021/06/24 01:47:41;;;;;;;12.80;10.25;;;;;;;14.79;80.28;101268.31;5079305;28;20382;-48
2021/06/24 01:50:10;;;;;;;12.57;10.23;;;;;;;14.74;79.58;101264.84;5079750;28;20031;-49
2021/06/24 01:52:42;;;;;;;12.98;10.50;;;;;;;14.84;78.69;101266.47;5083059;27;20135;-50
2021/06/24 01:55:09;;;;;;;13.73;10.35;;;;;;;14.84;79.17;101262.97;5077482;28;20071;-49
2021/06/24 01:57:46;;;;;;;14.55;10.55;;;;;;;15.06;78.19;101253.88;5043345;28;20122;-47
2021/06/24 02:00:26;;;;;;;13.82;10.68;;;;;;;14.87;79.55;101265.56;5075821;27;20047;-49
2021/06/24 02:03:11;;;;;;;14.82;10.52;;;;;;;14.95;77.87;101256.69;5075655;28;20092;-49
2021/06/24 02:05:37;;;;;;;;;;;;;;;14.85;78.72;101254.19;5108096;27;20070;-49
2021/06/24 02:08:04;;;;;;;15.15;9.82;;;;;;;14.91;77.41;101255.00;5077156;27;19923;-49
2021/06/24 02:10:41;;;;;;;13.90;10.02;;;;;;;14.91;77.64;101259.38;5095196;28;20475;-48
2021/06/24 02:13:10;;;;;;;12.07;10.50;;;;;;;14.95;77.68;101267.22;5075549;28;20020;-50
2021/06/24 02:15:36;;;;;;;;;;;;;;;14.88;78.49;101262.91;5095072;27;20128;-48
2021/06/24 02:18:06;;;;;;;13.50;9.38;;;;;;;14.84;78.00;101261.22;5095900;28;20184;-48
2021/06/24 02:20:41;;;;;;;12.13;10.32;;;;;;;14.79;79.28;101256.00;5090742;28;20040;-48
2021/06/24 02:23:23;;;;;;;14.98;10.75;;;;;;;14.64;79.68;101257.06;5075634;28;20267;-50
2021/06/24 02:25:58;;;;;;;13.07;10.35;;;;;;;14.60;79.64;101262.38;5093855;28;20575;-49
2021/06/24 02:28:34;;;;;;;14.82;11.27;;;;;;;14.62;80.01;101252.69;5079051;28;20020;-49
2021/06/24 02:31:29;;;;;;;12.73;10.18;;;;;;;14.55;80.98;101251.00;5078520;28;20026;-49
2021/06/24 02:34:00;;;;;;;12.57;9.52;;;;;;;14.56;80.45;101253.63;5110244;27;20338;-53
2021/06/24 02:36:33;;;;;;;13.20;10.40;;;;;;;14.48;80.31;101252.84;5076677;28;20040;-49
2021/06/24 02:39:00;;;;;;;14.45;10.60;;;;;;;14.47;80.76;101253.75;5079365;28;20043;-49
2021/06/24 02:41:26;;;;;;;16.27;11.88;;;;;;;14.44;80.69;101253.75;5073902;28;20109;-48
2021/06/24 02:43:51;;;;;;;12.63;10.75;;;;;;;14.48;80.24;101256.38;5111304;27;20359;-49
2021/06/24 02:46:17;;;;;;;15.30;11.00;;;;;;;14.59;79.61;101253.63;5096657;28;20436;-48
2021/06/24 02:48:49;;;;;;;14.27;12.15;;;;;;;14.59;80.08;101253.63;5091789;27;20082;-48
2021/06/24 02:51:20;;;;;;;15.68;11.32;;;;;;;14.55;81.13;101251.00;5092912;27;20043;-49
2021/06/24 02:54:17;;;;;;;13.75;10.13;;;;;;;14.60;79.58;101249.22;5085312;27;20408;-49
2021/06/24 02:56:44;;;;;;;16.73;11.48;;;;;;;14.55;80.09;101253.66;5101724;27;20038;-48
2021/06/24 02:59:29;;;;;;;14.57;10.73;;;;;;;14.61;80.57;101245.69;5096259;28;20469;-49
2021/06/24 03:01:55;;;;;;;14.65;10.75;;;;;;;14.56;80.93;101245.72;5074242;28;20132;-47
2021/06/24 03:04:31;;;;;;;16.17;10.95;;;;;;;14.61;79.98;101241.28;5071656;28;20038;-49
2021/06/24 03:06:57;;;;;;;15.15;10.90;;;;;;;14.57;79.41;101244.84;5111579;27;20031;-48
2021/06/24 03:09:27;;;;;;;14.02;10.57;;;;;;;14.61;79.01;101246.56;5093378;27;20138;-48
2021/06/24 03:11:53;;;;;;;12.85;10.43;;;;;;;14.68;78.61;101246.53;5090683;28;20128;-48
2021/06/24 03:14:22;;;;;;;16.63;11.10;;;;;;;14.66;80.03;101250.94;5077887;28;20063;-49
2021/06/24 03:16:49;;;;;;;15.50;10.98;;;;;;;14.67;79.82;101252.69;5095689;28;20042;-49
2021/06/24 03:19:19;;;;;;;15.27;11.32;;;;;;;14.77;79.90;101251.66;5076832;28;20032;-48
2021/06/24 03:22:07;;;;;;;15.20;11.07;;;;;;;14.67;79.84;101240.38;5072676;27;20774;-49
2021/06/24 03:24:46;;;;;;;14.50;11.30;;;;;;;14.61;80.62;101243.94;5081283;27;20047;-48
2021/06/24 03:27:12;;;;;;;14.43;11.07;;;;;;;14.56;81.20;101240.47;5073707;28;20047;-48
2021/06/24 03:29:55;;;;;;;15.48;12.13;;;;;;;14.59;79.83;101234.31;5095160;27;20113;-48
2021/06/24 03:32:21;;;;;;;15.77;11.15;;;;;;;14.88;79.82;101233.97;5076714;28;20043;-49
2021/06/24 03:34:48;;;;;;;16.60;12.23;;;;;;;14.79;78.24;101220.94;5110763;27;20050;-48
2021/06/24 03:37:14;;;;;;;18.33;12.38;;;;;;;14.69;80.71;101227.19;5093117;27;20455;-48
2021/06/24 03:39:48;;;;;;;14.70;12.00;;;;;;;14.66;79.99;101224.63;5075871;28;20500;-48
2021/06/24 03:42:16;;;;;;;16.10;12.15;;;;;;;14.59;80.37;101224.66;5095532;27;20050;-50
2021/06/24 03:44:42;;;;;;;13.35;11.05;;;;;;;14.55;80.98;101224.72;5074977;28;20513;-48
2021/06/24 03:47:08;;;;;;;15.55;11.65;;;;;;;14.61;79.32;101229.91;5093397;27;20043;-49
2021/06/24 03:49:33;;;;;;;17.85;11.93;;;;;;;14.54;80.78;101229.09;5075877;28;20488;-49
2021/06/24 03:52:00;;;;;;;15.05;10.88;;;;;;;14.57;80.18;101238.72;5076829;28;20487;-51
2021/06/24 03:54:28;;;;;;;16.27;12.93;;;;;;;14.57;81.30;101229.06;5109724;27;20047;-50
2021/06/24 03:56:53;;;;;;;13.60;10.75;;;;;;;14.64;79.56;101229.91;5076228;28;20384;-49
2021/06/24 03:59:20;;;;;;;15.57;11.07;;;;;;;14.69;79.48;101227.19;5077554;28;20053;-48
2021/06/24 04:01:52;;;;;;;14.60;11.27;;;;;;;14.63;80.53;101231.66;5071213;28;20458;-49
2021/06/24 04:04:18;;;;;;;17.23;12.07;;;;;;;14.59;81.26;101223.78;5075277;28;20460;-51
2021/06/24 04:06:53;;;;;;;14.85;12.07;;;;;;;14.69;81.72;101222.81;5077414;28;20045;-52
2021/06/24 04:09:18;;;;;;;15.65;12.98;;;;;;;14.63;81.71;101225.50;5094305;27;20032;-53
2021/06/24 04:11:46;;;;;;;16.75;12.57;;;;;;;14.61;81.81;101222.88;5077224;27;20047;-49
2021/06/24 04:14:31;;;;;;;16.88;12.30;;;;;;;14.53;81.72;101222.09;5097631;27;20058;-48
2021/06/24 04:17:04;;;;;;;15.32;11.80;;;;;;;14.52;80.88;101225.59;5094478;28;20090;-47
2021/06/24 04:19:33;;;;;;;15.95;12.38;;;;;;;14.52;82.02;101224.75;5077663;28;20032;-49
2021/06/24 04:22:00;;;;;;;19.45;12.90;;;;;;;14.49;82.18;101236.19;5097046;28;20043;-50
2021/06/24 04:24:41;;;;;;;15.50;11.82;;;;;;;14.42;84.11;101237.16;5059032;28;20043;-50
2021/06/24 04:27:07;;;;;;;18.95;13.05;;;;;;;14.45;81.59;101231.84;5090796;27;20035;-49
2021/06/24 04:29:35;;;;;;;14.60;11.52;;;;;;;14.48;81.77;101234.44;5063114;28;20035;-49
2021/06/24 04:32:03;;;;;;;15.35;11.45;;;;;;;14.47;81.52;101223.03;5072114;28;20039;-48
2021/06/24 04:34:29;;;;;;;16.23;13.07;;;;;;;14.59;80.16;101224.66;5095860;27;20035;-50
2021/06/24 04:37:06;;;;;;;15.90;11.80;;;;;;;14.57;80.89;101226.44;5095362;28;21173;-49
2021/06/24 04:39:34;;;;;;;18.23;12.57;;;;;;;14.48;81.92;101229.16;5094201;27;20043;-49
2021/06/24 04:42:01;;;;;;;17.48;13.35;;;;;;;14.47;82.20;101228.31;5077599;28;20222;-49
2021/06/24 04:44:27;;;;;;;20.55;14.57;;;;;;;14.46;82.02;101223.06;5070287;28;20036;-50
2021/06/24 04:46:56;;;;;;;16.45;13.27;;;;;;;14.50;82.45;101221.28;5109171;27;20404;-48
2021/06/24 04:49:24;;;;;;;18.15;13.10;;;;;;;14.50;81.98;101222.16;5095238;27;20039;-49
2021/06/24 04:52:18;;;;;;;18.95;12.88;;;;;;;14.50;82.28;101221.28;5085733;28;20596;-51
2021/06/24 04:55:10;;;;;;;18.50;14.25;;;;;;;14.51;81.67;101218.63;5088446;27;20250;-48
2021/06/24 04:57:40;;;;;;;18.30;14.40;;;;;;;14.60;81.93;101218.50;5070104;28;20040;-49
2021/06/24 05:00:25;;;;;;;16.88;13.65;;;;;;;14.64;80.02;101217.59;5093821;27;20051;-49
2021/06/24 05:03:10;;;;;;;17.90;12.98;;;;;;;14.68;80.62;101217.59;5075005;28;20640;-48
2021/06/24 05:05:43;;;;;;;19.73;14.05;;;;;;;14.69;81.30;101221.94;5092179;28;20039;-48
2021/06/24 05:08:22;;;;;;;19.77;14.90;;;;;;;14.76;80.63;101223.59;5094031;27;20096;-49
2021/06/24 05:10:48;;;;;;;18.92;14.15;;;;;;;14.77;81.18;101227.97;5091305;28;20061;-49
2021/06/24 05:13:14;;;;;;;20.60;14.80;;;;;;;14.77;81.04;101222.72;5096538;28;20730;-48
2021/06/24 05:15:42;;;;;;;21.83;14.70;;;;;;;14.83;81.30;101222.66;5094488;28;20031;-50
2021/06/24 05:18:08;;;;;;;19.23;15.27;;;;;;;14.80;81.33;101212.13;5075179;28;20047;-49
2021/06/24 05:20:36;;;;;;;20.08;15.30;;;;;;;14.84;81.79;101221.72;5095273;28;20028;-49
2021/06/24 05:23:02;;;;;;;20.67;15.33;;;;;;;14.86;81.46;101219.09;5074702;28;20136;-50
2021/06/24 05:25:28;;;;;;;18.02;14.18;;;;;;;14.80;81.06;101220.91;5059714;28;21015;-49
2021/06/24 05:27:57;;;;;;;;;;;;;;;14.82;80.27;101223.53;5095034;28;20772;-49
2021/06/24 05:30:23;;;;;;;16.42;13.07;;;;;;;14.83;80.55;101222.66;5077584;28;19932;-49
2021/06/24 05:32:48;;;;;;;18.27;14.90;;;;;;;14.82;82.09;101228.78;5091808;28;20032;-49
2021/06/24 05:35:14;;;;;;;19.05;13.30;;;;;;;14.84;81.21;101224.34;5072625;28;20487;-49
2021/06/24 05:37:40;;;;;;;22.13;15.05;;;;;;;14.85;81.44;101220.84;5058446;28;20063;-51
2021/06/24 05:40:06;;;;;;;19.95;14.15;;;;;;;14.87;80.47;101221.72;5095320;28;20036;-49
2021/06/24 05:42:32;;;;;;;23.13;16.65;;;;;;;14.92;81.45;101219.00;5109165;28;20051;-51
2021/06/24 05:44:58;;;;;;;24.67;16.10;;;;;;;14.90;81.20;101224.28;5073933;28;20500;-51
2021/06/24 05:47:23;;;;;;;22.95;15.50;;;;;;;14.95;80.15;101230.38;5092119;28;20035;-51
2021/06/24 05:49:52;;;;;;;19.48;15.70;;;;;;;15.05;81.41;101228.47;5091028;28;20043;-49
2021/06/24 05:52:17;;;;;;;20.20;15.98;;;;;;;14.98;81.76;101224.16;5095133;28;20046;-52
2021/06/24 05:54:43;;;;;;;24.63;18.20;;;;;;;14.94;81.53;101220.72;5094735;28;20039;-50
2021/06/24 05:57:11;;;;;;;20.42;16.05;;;;;;;14.95;81.23;101222.47;5093923;28;20291;-52
2021/06/24 05:59:37;;;;;;;22.08;15.95;;;;;;;14.97;82.20;101215.41;5096372;28;20622;-52
2021/06/24 06:02:02;;;;;;;20.27;15.70;;;;;;;15.02;80.57;101217.97;5092491;28;20139;-49
2021/06/24 06:04:31;;;;;;;21.65;16.30;;;;;;;15.04;81.74;101218.81;5080722;28;20070;-48
2021/06/24 06:06:59;;;;;;;22.23;16.88;;;;;;;15.05;81.80;101217.06;5086082;28;20042;-51
2021/06/24 06:09:25;;;;;;;24.42;17.52;;;;;;;15.07;81.25;101212.66;5094103;28;20486;-49
2021/06/24 06:11:51;;;;;;;20.67;16.40;;;;;;;15.08;80.49;101211.78;5093915;28;20099;-49
2021/06/24 06:14:19;;;;;;;23.45;17.50;;;;;;;15.08;81.79;101214.41;5095521;28;20096;-52
2021/06/24 06:16:45;;;;;;;22.38;16.33;;;;;;;15.16;80.61;101212.53;5092813;27;20027;-52
2021/06/24 06:19:12;;;;;;;23.17;17.48;;;;;;;15.26;81.78;101219.38;5101518;27;20080;-50
2021/06/24 06:21:38;;;;;;;20.50;16.13;;;;;;;15.24;81.14;101220.28;5097722;27;20050;-50
2021/06/24 06:24:04;;;;;;;24.67;16.60;;;;;;;15.29;80.53;101215.84;5096481;27;20047;-49
2021/06/24 06:26:32;;;;;;;21.75;17.65;;;;;;;15.22;81.52;101215.06;5077812;28;20043;-48
2021/06/24 06:29:03;;;;;;;24.00;18.35;;;;;;;15.55;81.10;101212.78;5096911;27;20509;-50
2021/06/24 06:31:37;;;;;;;22.45;16.90;;;;;;;15.46;78.86;101213.78;5095773;28;20027;-50
2021/06/24 06:34:02;;;;;;;;;;;;;;;15.31;80.92;101212.28;5098936;27;20063;-50
2021/06/24 06:36:28;;;;;;;23.50;18.25;;;;;;;15.27;80.22;101209.69;5096521;28;20012;-51
2021/06/24 06:38:53;;;;;;;24.23;16.48;;;;;;;15.26;80.05;101214.13;5097328;27;20129;-50
2021/06/24 06:41:19;;;;;;;20.95;17.80;;;;;;;15.48;80.96;101209.38;5095983;28;20508;-48
2021/06/24 06:43:45;;;;;;;23.45;17.67;;;;;;;15.41;80.17;101209.47;5076476;28;20035;-50
2021/06/24 06:46:11;;;;;;;24.80;18.48;;;;;;;15.69;80.43;101209.91;5096125;27;20023;-49
2021/06/24 06:48:36;;;;;;;21.85;17.45;;;;;;;15.59;79.60;101216.22;5094606;28;20036;-49
2021/06/24 06:51:03;;;;;;;20.85;17.00;;;;;;;15.47;79.73;101212.03;5095655;27;20416;-49
2021/06/24 06:53:29;;;;;;;23.83;17.85;;;;;;;15.43;81.25;101213.84;5093133;28;20470;-49
2021/06/24 06:55:54;;;;;;;24.08;18.02;;;;;;;15.40;81.05;101211.25;5095139;27;20262;-50
2021/06/24 06:58:20;;;;;;;24.33;19.17;;;;;;;15.37;80.58;101210.44;5097065;27;20399;-49
2021/06/24 07:00:46;;;;;;;22.17;17.40;;;;;;;15.40;79.90;101207.75;5097264;28;20048;-49
2021/06/24 07:03:28;;;;;;;23.40;17.40;;;;;;;15.52;80.56;101215.47;5094842;28;20258;-50
2021/06/24 07:05:53;;;;;;;22.02;17.65;;;;;;;15.50;79.03;101194.38;5096972;27;20407;-52
2021/06/24 07:08:19;;;;;;;24.55;17.75;;;;;;;15.54;80.19;101200.50;5096787;28;20090;-50
2021/06/24 07:10:45;;;;;;;23.30;18.13;;;;;;;15.55;80.63;101201.34;5093021;27;20519;-52
2021/06/24 07:13:11;;;;;;;23.67;18.35;;;;;;;15.62;80.45;101206.50;5098897;28;20139;-50
2021/06/24 07:15:37;;;;;;;23.25;17.75;;;;;;;15.70;80.16;101202.84;5095758;28;20070;-53
2021/06/24 07:18:03;;;;;;;21.48;16.88;;;;;;;15.71;79.61;101205.47;5098161;27;20134;-51
2021/06/24 07:20:29;;;;;;;23.42;19.67;;;;;;;15.83;79.16;101204.44;5097942;28;20105;-49
2021/06/24 07:22:54;;;;;;;24.73;17.55;;;;;;;16.08;78.21;101203.97;5075728;28;20423;-50
2021/06/24 07:25:22;;;;;;;21.23;16.38;;;;;;;16.17;77.87;101201.13;5099523;27;20031;-50
2021/06/24 07:27:48;;;;;;;21.63;17.83;;;;;;;16.10;78.67;101202.16;5094609;28;20036;-50
2021/06/24 07:30:17;;;;;;;19.73;16.60;;;;;;;16.39;77.07;101203.34;5097059;27;20527;-51
2021/06/24 07:32:43;;;;;;;22.20;17.23;;;;;;;16.24;77.60;101200.16;5096163;27;20044;-52
2021/06/24 07:35:10;;;;;;;21.05;17.17;;;;;;;16.13;77.45;101207.38;5097154;27;20060;-52
2021/06/24 07:37:36;;;;;;;24.48;17.80;;;;;;;16.08;77.86;101215.38;5097385;27;20043;-50
2021/06/24 07:40:06;;;;;;;21.52;16.90;;;;;;;16.08;77.65;101209.25;5097251;27;20047;-50
2021/06/24 07:42:32;;;;;;;18.73;16.00;;;;;;;16.27;78.01;101210.63;5095205;28;20280;-52
2021/06/24 07:44:58;;;;;;;20.77;16.67;;;;;;;16.29;79.42;101219.38;5096015;27;20047;-52
2021/06/24 07:47:23;;;;;;;19.23;15.93;;;;;;;16.26;78.54;101211.53;5095611;27;20486;-50
2021/06/24 07:49:49;;;;;;;22.73;16.85;;;;;;;16.85;76.50;101208.53;5093868;28;20036;-50
2021/06/24 07:52:15;;;;;;;18.55;16.50;;;;;;;16.53;76.67;101201.28;5096161;27;20480;-49
2021/06/24 07:54:44;;;;;;;22.77;16.27;;;;;;;17.10;74.02;101205.38;5084281;28;20369;-49
2021/06/24 07:57:10;;;;;;;21.27;16.55;;;;;;;16.74;76.16;101209.66;5089896;27;20491;-51
2021/06/24 07:59:37;;;;;;;19.52;16.83;;;;;;;16.55;76.73;101204.78;5094842;28;20048;-50
2021/06/24 08:02:08;;;;;;;21.20;15.40;;;;;;;16.69;76.02;101208.00;5092070;27;20521;-50
2021/06/24 08:04:34;;;;;;;17.95;14.32;;;;;;;16.65;76.58;101210.75;5109204;27;20122;-49
2021/06/24 08:07:00;;;;;;;17.95;15.27;;;;;;;16.66;77.48;101209.84;5077879;28;20042;-51
2021/06/24 08:09:26;;;;;;;19.52;15.18;;;;;;;16.69;75.63;101202.72;5094371;28;20047;-51
2021/06/24 08:11:51;;;;;;;18.33;14.48;;;;;;;16.57;76.08;101202.97;5075598;28;20031;-53
2021/06/24 08:14:17;;;;;;;17.58;14.18;;;;;;;16.73;76.01;101202.66;5092092;28;20085;-51
2021/06/24 08:16:43;;;;;;;18.50;14.15;;;;;;;16.75;74.78;101203.47;5096072;28;20031;-54
2021/06/24 08:19:09;;;;;;;18.88;13.95;;;;;;;16.67;76.39;101201.88;5098554;28;20040;-51
2021/06/24 08:21:34;;;;;;;19.65;14.13;;;;;;;16.74;76.66;101204.38;5095476;27;20051;-54
2021/06/24 08:24:00;;;;;;;18.65;14.20;;;;;;;16.73;75.21;101200.03;5094239;27;20035;-52
2021/06/24 08:26:25;;;;;;;15.35;13.73;;;;;;;16.71;76.82;101199.16;5095073;28;20093;-52
2021/06/24 08:28:51;;;;;;;18.90;13.55;;;;;;;17.11;74.24;101195.66;5093493;27;20915;-51
2021/06/24 08:31:17;;;;;;;17.23;14.05;;;;;;;16.92;76.60;101188.19;5096562;27;20046;-51
2021/06/24 08:33:43;;;;;;;17.73;12.80;;;;;;;17.21;75.09;101189.28;5074644;28;20074;-51
2021/06/24 08:36:09;;;;;;;18.25;14.23;;;;;;;17.06;76.08;101201.06;5094849;27;20576;-50
2021/06/24 08:38:36;;;;;;;17.38;14.27;;;;;;;17.15;73.30;101197.31;5096449;28;20047;-51
2021/06/24 08:41:01;;;;;;;18.15;13.63;;;;;;;17.10;74.56;101199.19;5092263;28;20227;-54
2021/06/24 08:43:27;;;;;;;16.98;13.55;;;;;;;16.98;75.66;101201.22;5093126;28;20039;-50
2021/06/24 08:46:03;;;;;;;18.00;13.75;;;;;;;16.94;76.39;101202.19;5095164;28;20503;-50
2021/06/24 08:48:35;;;;;;;16.48;13.35;;;;;;;17.02;75.76;101200.25;5093358;28;20130;-53
2021/06/24 08:51:02;;;;;;;16.65;12.93;;;;;;;17.48;74.65;101200.06;5076243;28;20036;-51
2021/06/24 08:53:30;;;;;;;16.13;12.05;;;;;;;17.47;74.70;101203.59;5075918;28;20036;-53
2021/06/24 08:55:58;;;;;;;14.80;11.95;;;;;;;17.21;75.41;101202.47;5061809;28;20063;-51
2021/06/24 08:58:24;;;;;;;16.30;12.07;;;;;;;17.21;75.43;101209.53;5096469;28;20123;-53
2021/06/24 09:00:52;;;;;;;17.52;12.48;;;;;;;17.18;75.86;101202.53;5093076;28;20148;-52
2021/06/24 09:03:22;;;;;;;18.60;13.45;;;;;;;17.07;74.60;101212.50;5093361;27;20043;-53
2021/06/24 09:06:01;;;;;;;17.30;13.02;;;;;;;17.12;75.90;101218.53;5093489;28;20047;-52
2021/06/24 09:08:33;;;;;;;17.50;12.45;;;;;;;17.05;75.41;101206.38;5092576;27;20343;-50
2021/06/24 09:11:15;;;;;;;16.67;12.88;;;;;;;16.99;76.67;101213.53;5090877;28;20075;-51
2021/06/24 09:13:42;;;;;;;12.55;11.05;;;;;;;17.03;77.53;101209.06;5095169;28;20573;-49
2021/06/24 09:16:27;;;;;;;16.00;12.57;;;;;;;17.29;75.50;101208.47;5092426;28;20039;-50
2021/06/24 09:19:13;;;;;;;14.30;12.45;;;;;;;17.67;72.50;101203.13;5093513;27;20134;-49
2021/06/24 09:21:39;;;;;;;15.25;12.30;;;;;;;17.54;72.52;101199.91;5082672;28;20075;-50
2021/06/24 09:24:23;;;;;;;14.70;11.43;;;;;;;17.55;73.98;101209.56;5092813;28;20762;-49
2021/06/24 09:26:49;;;;;;;15.00;12.25;;;;;;;17.78;72.81;101200.19;5094075;28;20067;-52
2021/06/24 09:29:16;;;;;;;15.77;12.45;;;;;;;18.13;70.51;101208.97;5097330;28;20090;-50
2021/06/24 09:31:44;;;;;;;16.42;12.27;;;;;;;17.84;74.11;101207.97;5092402;28;20027;-50
2021/06/24 09:34:15;;;;;;;14.52;12.10;;;;;;;17.92;70.96;101197.22;5076412;28;20031;-50
2021/06/24 09:36:51;;;;;;;14.40;11.18;;;;;;;18.10;72.33;101202.00;5108636;28;20096;-49
2021/06/24 09:39:29;;;;;;;14.63;11.82;;;;;;;18.30;71.62;101195.28;5091031;28;20082;-51
2021/06/24 09:42:05;;;;;;;14.02;11.57;;;;;;;18.04;72.05;101194.22;5075469;28;20040;-49
2021/06/24 09:44:32;;;;;;;14.15;11.52;;;;;;;17.98;72.62;101197.03;5094670;28;20036;-50
2021/06/24 09:46:59;;;;;;;18.05;12.82;;;;;;;17.93;70.53;101194.53;5090358;28;20391;-51
2021/06/24 09:49:33;;;;;;;13.27;11.82;;;;;;;17.97;72.02;101190.88;5093318;28;20454;-49
2021/06/24 09:52:03;;;;;;;17.10;13.30;;;;;;;18.10;70.57;101198.50;5086462;28;20808;-49
2021/06/24 09:54:33;;;;;;;17.25;12.68;;;;;;;17.87;71.16;101189.34;5095639;27;20035;-49
2021/06/24 09:56:59;;;;;;;15.10;12.05;;;;;;;18.11;72.25;101192.28;5098676;27;20043;-49
2021/06/24 09:59:51;;;;;;;15.27;11.82;;;;;;;18.11;72.04;101192.28;5098231;27;20565;-52
2021/06/24 10:02:19;;;;;;;14.70;12.30;;;;;;;18.24;71.38;101193.66;5091894;27;20124;-49
2021/06/24 10:04:46;;;;;;;13.45;11.98;;;;;;;17.95;72.29;101194.47;5098666;27;20036;-51
2021/06/24 10:07:17;;;;;;;12.52;11.27;;;;;;;17.87;73.17;101189.34;5098177;28;20036;-52
2021/06/24 10:09:44;;;;;;;14.00;11.05;;;;;;;18.21;72.25;101191.13;5078229;27;20044;-50
2021/06/24 10:12:13;;;;;;;13.50;11.80;;;;;;;18.06;72.15;101189.75;5097309;28;20436;-54
2021/06/24 10:14:40;;;;;;;13.48;10.70;;;;;;;18.11;72.58;101189.63;5099144;27;20405;-50
2021/06/24 10:17:08;;;;;;;14.80;11.13;;;;;;;18.29;71.80;101196.19;5064968;28;20039;-49
2021/06/24 10:19:38;;;;;;;12.75;10.65;;;;;;;18.65;69.79;101194.25;5098980;27;20045;-50
2021/06/24 10:22:11;;;;;;;14.43;11.80;;;;;;;18.21;72.27;101193.75;5100030;27;20122;-49
2021/06/24 10:24:43;;;;;;;13.40;11.23;;;;;;;18.05;72.27;101190.66;5098497;27;20035;-49
2021/06/24 10:27:13;;;;;;;14.90;11.70;;;;;;;18.13;70.20;101195.75;5099899;27;20048;-50
2021/06/24 10:29:43;;;;;;;13.13;11.07;;;;;;;18.21;71.73;101199.91;5097128;27;20039;-50
2021/06/24 10:32:31;;;;;;;14.98;11.98;;;;;;;18.24;71.56;101195.47;5096849;27;20051;-52
2021/06/24 10:34:59;;;;;;;13.65;11.50;;;;;;;18.16;70.85;101195.66;5099652;28;20110;-51
2021/06/24 10:37:26;;;;;;;14.90;11.43;;;;;;;18.17;71.61;101197.41;5077498;28;20050;-50
2021/06/24 10:39:55;;;;;;;11.93;10.70;;;;;;;18.42;71.16;101197.56;5098940;27;20045;-50
2021/06/24 10:42:23;;;;;;;15.68;10.43;;;;;;;18.53;70.42;101192.81;5098360;27;20375;-51
2021/06/24 10:44:57;;;;;;;13.15;11.23;;;;;;;18.41;70.67;101194.97;5093505;27;20074;-51
2021/06/24 10:47:41;;;;;;;11.07;9.98;;;;;;;18.39;70.59;101195.00;5096181;28;20044;-53
2021/06/24 10:50:32;;;;;;;11.30;9.60;;;;;;;18.92;68.27;101190.84;5097872;27;20039;-51
2021/06/24 10:53:02;;;;;;;12.05;10.27;;;;;;;18.62;71.01;101199.66;5097676;27;20480;-52
2021/06/24 10:55:31;;;;;;;15.05;11.02;;;;;;;18.54;70.39;101188.41;5078339;28;20387;-52
2021/06/24 10:57:59;;;;;;;12.90;11.15;;;;;;;18.68;69.75;101195.94;5097044;27;20581;-48
2021/06/24 11:00:38;;;;;;;13.05;10.38;;;;;;;18.72;69.10;101195.78;5094400;27;20074;-51
2021/06/24 11:03:31;;;;;;;14.93;10.73;;;;;;;18.94;68.13;101186.34;5096404;27;20488;-51
2021/06/24 11:06:23;;;;;;;15.25;10.60;;;;;;;18.54;70.79;101185.75;5096625;28;20063;-49
2021/06/24 11:09:09;;;;;;;16.20;9.88;;;;;;;18.63;73.14;101184.63;5075615;28;20347;-53
2021/06/24 11:11:42;;;;;;;12.82;10.40;;;;;;;18.56;72.33;101189.22;5093343;27;20196;-49
2021/06/24 11:14:07;;;;;;;12.35;11.05;;;;;;;18.51;72.45;101183.19;5097368;28;20050;-51
2021/06/24 11:16:35;;;;;;;14.95;11.40;;;;;;;18.52;69.44;101182.28;5095326;27;20036;-51
2021/06/24 11:19:10;;;;;;;11.20;10.05;;;;;;;18.49;69.07;101183.22;5097008;27;20043;-50
2021/06/24 11:21:35;;;;;;;13.45;10.35;;;;;;;18.56;69.78;101183.94;5069756;28;20044;-49
2021/06/24 11:24:06;;;;;;;14.20;11.10;;;;;;;18.67;70.86;101183.59;5096301;27;20053;-50